Time;durP1;ratioP1;P1;durP2;ratioP2;P2;SDS_P1;SDS_P2;PMS_P1;PMS_P2;Temp;Humidity;BMP_temperature;BMP_pressure;BME280_temperature;BME280_humidity;BME280_pressure;Samples;Min_cycle;Max_cycle;Signal;HPM_P1;HPM_P2
2021/09/24 00:01:26;;;;;;;8.40;2.00;;;;;;;12.81;83.56;98929.52;93700;1198;93465;-67
2021/09/24 00:03:30;;;;;;;7.00;1.80;;;;;;;12.67;83.58;98935.77;93714;1197;79277;-68
2021/09/24 00:05:34;;;;;;;7.80;1.90;;;;;;;12.56;83.57;98935.90;93632;1198;80211;-63
2021/09/24 00:07:39;;;;;;;6.70;1.70;;;;;;;12.44;83.51;98943.17;93707;1197;97764;-64
2021/09/24 00:09:43;;;;;;;6.60;2.30;;;;;;;12.32;83.42;98949.09;93579;1197;87418;-62
2021/09/24 00:11:50;;;;;;;6.40;1.60;;;;;;;12.15;83.44;98951.98;93621;1196;92239;-64
2021/09/24 00:13:57;;;;;;;8.80;1.80;;;;;;;12.03;83.61;98957.04;93654;1197;79530;-64
2021/09/24 00:16:01;;;;;;;7.80;1.60;;;;;;;11.90;83.53;98958.39;93675;1198;80769;-68
2021/09/24 00:18:06;;;;;;;8.90;1.70;;;;;;;11.88;83.70;98958.14;93644;1198;99500;-68
2021/09/24 00:20:13;;;;;;;6.80;1.60;;;;;;;11.90;83.64;98957.74;93614;1198;86449;-67
2021/09/24 00:22:18;;;;;;;5.40;1.50;;;;;;;11.85;83.71;98962.71;93707;1197;94768;-68
2021/09/24 00:24:22;;;;;;;5.80;1.80;;;;;;;11.79;83.62;98962.95;93673;1197;80811;-68
2021/09/24 00:26:26;;;;;;;6.80;2.10;;;;;;;11.70;83.60;98964.50;93691;1198;82349;-64
2021/09/24 00:28:30;;;;;;;6.70;1.80;;;;;;;11.63;83.60;98966.13;93648;1198;99314;-63
2021/09/24 00:30:35;;;;;;;9.20;1.90;;;;;;;11.47;83.63;98964.11;93683;1197;87656;-64
2021/09/24 00:32:39;;;;;;;7.60;2.00;;;;;;;11.34;83.65;98962.59;93676;1198;92763;-64
2021/09/24 00:34:43;;;;;;;8.20;1.70;;;;;;;11.21;83.63;98962.61;93647;1198;81663;-64
2021/09/24 00:36:48;;;;;;;6.00;2.10;;;;;;;11.14;83.72;98955.45;93657;1197;80549;-69
2021/09/24 00:38:52;;;;;;;12.40;2.50;;;;;;;11.10;83.74;98959.33;93569;1198;97581;-67
2021/09/24 00:40:56;;;;;;;7.40;1.90;;;;;;;11.06;83.74;98953.48;93667;1198;87580;-63
2021/09/24 00:43:03;;;;;;;8.50;1.80;;;;;;;11.02;83.68;98967.25;93646;1197;94018;-63
2021/09/24 00:45:10;;;;;;;9.40;2.10;;;;;;;10.93;83.70;98967.98;93734;1197;79773;-64
2021/09/24 00:47:15;;;;;;;9.00;2.00;;;;;;;10.88;83.81;98965.44;93686;1198;81703;-63
2021/09/24 00:49:20;;;;;;;11.30;2.70;;;;;;;10.83;83.78;98967.52;93731;1197;97839;-63
2021/09/24 00:51:57;;;;;;;9.80;1.90;;;;;;;10.80;83.80;98974.08;93653;1198;88193;-63
2021/09/24 00:54:16;;;;;;;10.50;2.00;;;;;;;10.77;83.82;98976.46;93669;1197;94306;-63
2021/09/24 00:56:37;;;;;;;10.60;2.00;;;;;;;10.76;83.87;98971.19;93574;1198;81433;-68
2021/09/24 00:58:50;;;;;;;7.10;1.60;;;;;;;10.69;83.73;98982.77;93617;1197;80808;-67
2021/09/24 01:01:03;;;;;;;8.30;1.90;;;;;;;10.65;83.68;98980.65;93679;1197;97929;-67
2021/09/24 01:03:24;;;;;;;10.20;2.00;;;;;;;10.60;83.72;98981.67;93673;1198;87832;-67
2021/09/24 01:05:43;;;;;;;10.70;2.50;;;;;;;10.55;83.75;98984.55;93668;1198;94366;-62
2021/09/24 01:08:07;;;;;;;6.80;2.30;;;;;;;10.52;83.69;98983.70;93664;1198;78708;-63
2021/09/24 01:10:17;;;;;;;8.70;2.50;;;;;;;10.50;83.71;98979.48;93664;1198;81745;-63
2021/09/24 01:12:24;;;;;;;10.60;2.20;;;;;;;10.46;83.62;98979.56;93670;1197;99328;-63
2021/09/24 01:14:56;;;;;;;10.90;3.00;;;;;;;10.42;83.61;98980.10;93681;1198;88026;-63
2021/09/24 01:17:15;;;;;;;9.30;2.40;;;;;;;10.40;83.54;98986.69;93739;1197;94181;-63
2021/09/24 01:19:34;;;;;;;10.80;2.40;;;;;;;10.41;83.60;98988.89;93650;1198;79110;-63
2021/09/24 01:21:48;;;;;;;11.70;2.60;;;;;;;10.46;83.69;98987.14;93739;1198;80100;-67
2021/09/24 01:23:55;;;;;;;7.70;2.00;;;;;;;10.50;83.55;98980.77;93629;1197;98259;-67
2021/09/24 01:26:07;;;;;;;8.70;2.60;;;;;;;10.52;83.55;98986.78;93707;1198;88026;-68
2021/09/24 01:28:18;;;;;;;11.40;2.90;;;;;;;10.54;83.53;98984.38;93709;1198;93668;-68
2021/09/24 01:30:26;;;;;;;11.80;3.50;;;;;;;10.56;83.36;98990.14;93661;1198;78600;-63
2021/09/24 01:32:49;;;;;;;11.60;2.50;;;;;;;10.62;83.39;98985.25;93715;1198;81377;-63
2021/09/24 01:35:12;;;;;;;12.50;2.50;;;;;;;10.68;83.34;98990.09;93659;1198;99147;-62
2021/09/24 01:37:31;;;;;;;11.30;2.40;;;;;;;10.72;83.20;98995.17;93661;1198;87965;-70
2021/09/24 01:39:51;;;;;;;8.90;2.20;;;;;;;10.75;83.17;98992.50;93655;1198;94907;-67
2021/09/24 01:42:29;;;;;;;10.20;2.60;;;;;;;10.83;83.10;98981.83;93580;1198;80070;-68
2021/09/24 01:44:36;;;;;;;10.70;2.60;;;;;;;10.87;83.10;98985.89;93605;1198;81738;-67
2021/09/24 01:46:59;;;;;;;15.60;2.90;;;;;;;10.93;82.99;98983.46;93685;1198;99486;-68
2021/09/24 01:49:25;;;;;;;10.60;2.70;;;;;;;10.98;82.98;98976.70;93702;1197;87227;-66
2021/09/24 01:51:40;;;;;;;9.70;3.00;;;;;;;10.98;82.90;98977.19;93682;1198;95091;-67
2021/09/24 01:53:54;;;;;;;14.20;2.40;;;;;;;11.00;82.81;98985.86;93714;1198;80840;-68
2021/09/24 01:56:05;;;;;;;12.90;2.50;;;;;;;11.01;82.80;98985.56;93691;1198;81687;-66
2021/09/24 01:58:28;;;;;;;8.90;2.30;;;;;;;11.04;82.69;98984.13;93674;1198;99383;-67
2021/09/24 02:00:51;;;;;;;11.20;2.10;;;;;;;11.07;82.60;98976.92;93661;1198;88047;-67
2021/09/24 02:03:08;;;;;;;13.50;2.80;;;;;;;11.10;82.57;98976.59;93720;1197;94207;-68
2021/09/24 02:05:28;;;;;;;8.70;2.20;;;;;;;11.14;82.27;98972.14;93686;1199;81018;-66
2021/09/24 02:07:37;;;;;;;12.90;2.60;;;;;;;11.16;82.23;98979.77;93668;1197;80664;-67
2021/09/24 02:10:00;;;;;;;10.70;2.30;;;;;;;11.18;82.25;98981.39;93671;1197;97845;-67
2021/09/24 02:12:19;;;;;;;8.40;2.00;;;;;;;11.21;82.20;98968.62;93559;1198;87177;-63
2021/09/24 02:14:36;;;;;;;10.80;2.60;;;;;;;11.22;82.09;98978.00;93653;1198;94590;-60
2021/09/24 02:16:51;;;;;;;14.60;3.50;;;;;;;11.23;82.01;98987.27;93684;1196;79679;-63
2021/09/24 02:19:10;;;;;;;8.80;1.90;;;;;;;11.28;81.95;98993.13;93704;1197;82190;-62
2021/09/24 02:21:22;;;;;;;13.20;2.20;;;;;;;11.31;81.89;98989.21;93650;1196;98669;-63
2021/09/24 02:23:42;;;;;;;12.00;2.30;;;;;;;11.32;81.95;98986.91;93667;1197;87406;-63
2021/09/24 02:25:54;;;;;;;8.40;2.00;;;;;;;11.32;81.92;98993.78;93691;1197;94405;-64
2021/09/24 02:28:14;;;;;;;9.10;1.90;;;;;;;11.31;81.95;98996.45;93658;1196;81229;-62
2021/09/24 02:30:23;;;;;;;8.50;2.00;;;;;;;11.30;81.97;98986.31;93705;1196;80831;-66
2021/09/24 02:32:45;;;;;;;8.50;2.10;;;;;;;11.31;82.09;98998.62;93645;1196;98720;-67
2021/09/24 02:34:50;;;;;;;10.00;1.80;;;;;;;11.31;82.12;99001.11;93679;1197;86770;-67
2021/09/24 02:36:54;;;;;;;8.90;1.80;;;;;;;11.26;82.12;99002.11;93644;1196;93543;-63
2021/09/24 02:38:59;;;;;;;8.40;2.10;;;;;;;11.25;82.03;99009.83;93669;1197;78992;-62
2021/09/24 02:41:04;;;;;;;10.90;2.20;;;;;;;11.26;82.12;99014.39;93689;1197;83056;-62
2021/09/24 02:43:08;;;;;;;7.10;1.90;;;;;;;11.27;82.05;99015.91;93745;1197;97436;-62
2021/09/24 02:45:15;;;;;;;7.70;1.70;;;;;;;11.26;82.03;99016.01;93692;1196;87253;-62
2021/09/24 02:47:20;;;;;;;10.20;2.00;;;;;;;11.26;82.02;99014.11;93698;1196;93830;-67
2021/09/24 02:49:24;;;;;;;10.70;2.20;;;;;;;11.29;82.04;99027.92;93618;1197;78041;-67
2021/09/24 02:51:29;;;;;;;11.00;2.00;;;;;;;11.30;81.96;99031.52;93699;1197;81750;-62
2021/09/24 02:53:33;;;;;;;13.20;2.10;;;;;;;11.30;81.85;99029.03;93664;1196;98151;-63
2021/09/24 02:55:37;;;;;;;10.30;1.90;;;;;;;11.29;81.87;99032.78;93685;1197;87224;-66
2021/09/24 02:57:41;;;;;;;9.70;2.00;;;;;;;11.30;81.81;99034.65;93683;1196;93914;-66
2021/09/24 02:59:46;;;;;;;10.90;2.50;;;;;;;11.33;81.80;99028.23;93649;1197;78075;-66
2021/09/24 03:01:52;;;;;;;9.10;2.10;;;;;;;11.35;81.86;99030.25;93655;1196;80078;-63
2021/09/24 03:03:56;;;;;;;9.80;2.10;;;;;;;11.37;81.82;99034.36;93625;1196;99091;-61
2021/09/24 03:06:00;;;;;;;11.80;2.00;;;;;;;11.37;81.56;99037.83;93703;1196;88032;-63
2021/09/24 03:08:06;;;;;;;15.20;2.30;;;;;;;11.39;81.60;99034.73;93704;1196;92951;-62
2021/09/24 03:10:12;;;;;;;15.00;2.70;;;;;;;11.39;81.57;99040.44;93659;1196;80090;-62
2021/09/24 03:12:24;;;;;;;12.30;3.00;;;;;;;11.40;81.56;99047.20;93728;1196;81441;-62
2021/09/24 03:14:32;;;;;;;10.40;2.20;;;;;;;11.43;81.40;99052.16;93642;1196;98499;-62
2021/09/24 03:16:37;;;;;;;9.60;2.10;;;;;;;11.44;81.44;99050.30;93690;1196;86818;-64
2021/09/24 03:18:41;;;;;;;10.40;2.30;;;;;;;11.44;81.40;99050.85;93672;1197;93769;-63
2021/09/24 03:20:45;;;;;;;10.60;2.20;;;;;;;11.43;81.30;99060.48;93634;1197;79834;-62
2021/09/24 03:22:49;;;;;;;10.70;2.80;;;;;;;11.41;81.25;99061.20;93689;1196;81601;-62
2021/09/24 03:24:53;;;;;;;8.60;2.60;;;;;;;11.43;81.25;99060.38;93646;1196;98520;-63
2021/09/24 03:26:58;;;;;;;9.60;2.10;;;;;;;11.44;81.27;99069.15;93666;1196;85570;-67
2021/09/24 03:29:03;;;;;;;17.80;3.00;;;;;;;11.43;81.26;99072.32;93661;1196;95092;-67
2021/09/24 03:31:07;;;;;;;14.30;2.30;;;;;;;11.42;81.21;99070.26;93686;1196;78384;-66
2021/09/24 03:33:12;;;;;;;10.40;2.20;;;;;;;11.40;81.24;99063.76;93644;1196;82101;-67
2021/09/24 03:35:19;;;;;;;13.80;2.10;;;;;;;11.37;81.17;99070.65;93700;1196;97900;-66
2021/09/24 03:37:23;;;;;;;10.90;2.50;;;;;;;11.37;81.12;99068.98;93642;1196;88111;-62
2021/09/24 03:39:27;;;;;;;11.50;2.30;;;;;;;11.39;81.16;99074.80;93665;1196;93796;-61
2021/09/24 03:41:31;;;;;;;10.90;2.40;;;;;;;11.40;81.15;99079.23;93623;1196;79291;-66
2021/09/24 03:43:39;;;;;;;10.90;2.50;;;;;;;11.40;81.19;99081.81;93651;1196;80632;-66
2021/09/24 03:45:45;;;;;;;11.40;2.50;;;;;;;11.39;81.12;99086.57;93626;1196;98380;-67
2021/09/24 03:47:50;;;;;;;10.30;2.10;;;;;;;11.37;81.08;99091.69;93679;1196;87945;-68
2021/09/24 03:49:54;;;;;;;9.30;2.90;;;;;;;11.38;81.06;99096.09;93683;1196;93029;-66
2021/09/24 03:52:00;;;;;;;10.60;2.60;;;;;;;11.38;81.13;99095.39;93636;1196;79733;-67
2021/09/24 03:54:05;;;;;;;13.50;2.40;;;;;;;11.38;81.11;99098.89;93709;1196;80858;-67
2021/09/24 03:56:09;;;;;;;15.00;2.40;;;;;;;11.38;81.17;99104.91;93598;1199;98678;-61
2021/09/24 03:58:13;;;;;;;11.10;2.30;;;;;;;11.37;81.08;99110.83;93711;1196;87946;-62
2021/09/24 04:00:20;;;;;;;11.10;2.20;;;;;;;11.37;81.05;99112.72;93655;1196;93071;-63
2021/09/24 04:02:24;;;;;;;9.50;2.30;;;;;;;11.36;81.10;99110.52;93636;1196;78957;-62
2021/09/24 04:04:29;;;;;;;8.60;2.80;;;;;;;11.35;81.08;99113.95;93691;1196;81531;-63
2021/09/24 04:06:36;;;;;;;10.70;2.30;;;;;;;11.37;81.10;99121.80;93667;1196;97931;-67
2021/09/24 04:08:40;;;;;;;7.10;1.90;;;;;;;11.39;81.14;99119.64;93679;1196;86722;-67
2021/09/24 04:10:44;;;;;;;7.50;2.20;;;;;;;11.40;81.15;99121.13;93579;1199;93940;-61
2021/09/24 04:12:48;;;;;;;9.20;2.40;;;;;;;11.37;81.20;99130.77;93640;1196;81318;-63
2021/09/24 04:14:53;;;;;;;8.80;2.20;;;;;;;11.34;81.21;99133.30;93629;1197;82305;-62
2021/09/24 04:16:57;;;;;;;11.20;2.50;;;;;;;11.33;81.13;99125.24;93637;1197;97250;-63
2021/09/24 04:19:01;;;;;;;13.00;3.20;;;;;;;11.34;81.16;99130.05;93636;1196;87540;-62
2021/09/24 04:21:05;;;;;;;11.10;2.40;;;;;;;11.37;81.14;99132.20;93653;1197;94033;-66
2021/09/24 04:23:09;;;;;;;9.90;2.40;;;;;;;11.35;81.13;99136.03;93556;1200;80898;-67
2021/09/24 04:25:14;;;;;;;11.80;2.80;;;;;;;11.36;81.20;99139.02;93673;1197;80943;-67
2021/09/24 04:27:18;;;;;;;9.10;2.20;;;;;;;11.35;81.10;99137.96;93652;1197;96389;-67
2021/09/24 04:29:23;;;;;;;10.50;2.30;;;;;;;11.34;81.14;99148.31;93657;1197;88159;-67
2021/09/24 04:31:27;;;;;;;12.40;2.90;;;;;;;11.35;81.16;99145.80;93696;1197;93446;-62
2021/09/24 04:33:34;;;;;;;14.00;2.60;;;;;;;11.36;81.06;99146.63;93690;1199;80072;-62
2021/09/24 04:35:38;;;;;;;14.50;3.30;;;;;;;11.36;81.05;99148.50;93634;1197;80565;-67
2021/09/24 04:37:42;;;;;;;15.00;3.20;;;;;;;11.35;81.07;99152.03;93648;1199;97786;-67
2021/09/24 04:39:46;;;;;;;15.60;4.00;;;;;;;11.36;81.01;99156.11;93697;1197;87553;-66
2021/09/24 04:41:51;;;;;;;7.60;2.40;;;;;;;11.39;81.00;99166.27;93693;1197;93425;-62
2021/09/24 04:43:55;;;;;;;10.80;3.00;;;;;;;11.42;81.05;99164.83;93641;1199;78968;-61
2021/09/24 04:46:02;;;;;;;11.10;2.20;;;;;;;11.40;81.11;99164.63;93656;1193;80013;-62
2021/09/24 04:48:07;;;;;;;11.10;2.40;;;;;;;11.41;81.07;99165.58;93610;1198;98275;-60
2021/09/24 04:50:15;;;;;;;11.50;3.00;;;;;;;11.42;81.00;99171.11;93679;1197;85838;-62
2021/09/24 04:52:21;;;;;;;9.20;2.50;;;;;;;11.43;81.05;99171.05;93671;1198;94106;-65
2021/09/24 04:54:25;;;;;;;12.90;2.80;;;;;;;11.46;81.03;99172.10;93679;1198;79441;-63
2021/09/24 04:56:30;;;;;;;10.00;2.30;;;;;;;11.48;81.03;99171.36;93657;1197;80624;-67
2021/09/24 04:58:34;;;;;;;14.70;2.80;;;;;;;11.53;81.06;99172.36;93670;1197;98787;-67
2021/09/24 05:00:38;;;;;;;8.90;2.50;;;;;;;11.54;80.91;99179.16;93698;1198;88354;-66
2021/09/24 05:02:45;;;;;;;12.20;2.60;;;;;;;11.61;80.91;99186.24;93608;1199;94360;-63
2021/09/24 05:04:49;;;;;;;9.40;2.20;;;;;;;11.66;80.95;99185.34;93645;1198;78648;-67
2021/09/24 05:06:53;;;;;;;9.70;2.10;;;;;;;11.72;80.89;99188.39;93668;1198;81793;-63
2021/09/24 05:08:57;;;;;;;10.10;2.80;;;;;;;11.74;80.79;99194.40;93643;1198;99180;-64
2021/09/24 05:11:01;;;;;;;11.50;3.10;;;;;;;11.78;80.80;99193.27;93617;1198;88518;-62
2021/09/24 05:13:08;;;;;;;15.70;2.50;;;;;;;11.84;80.71;99191.16;93693;1199;93744;-63
2021/09/24 05:15:13;;;;;;;12.00;2.40;;;;;;;11.90;80.63;99195.09;93673;1199;79967;-63
2021/09/24 05:17:17;;;;;;;12.90;3.00;;;;;;;11.96;80.63;99199.05;93701;1199;80612;-68
2021/09/24 05:19:25;;;;;;;12.40;3.40;;;;;;;12.04;80.65;99203.32;93657;1199;98311;-67
2021/09/24 05:21:29;;;;;;;12.10;2.60;;;;;;;12.08;80.47;99208.89;93696;1197;87428;-67
2021/09/24 05:23:33;;;;;;;13.60;2.50;;;;;;;12.05;80.32;99215.33;93610;1197;93667;-68
2021/09/24 05:25:37;;;;;;;13.80;3.00;;;;;;;12.07;80.40;99217.65;93721;1200;78245;-67
2021/09/24 05:27:42;;;;;;;13.50;2.60;;;;;;;12.09;80.25;99229.79;93708;1197;82079;-70
2021/09/24 05:29:46;;;;;;;15.30;2.80;;;;;;;12.14;80.32;99232.14;93691;1196;98273;-69
2021/09/24 05:31:50;;;;;;;11.80;3.10;;;;;;;12.23;80.23;99227.69;93673;1196;86492;-67
2021/09/24 05:33:54;;;;;;;10.00;2.40;;;;;;;12.30;80.11;99230.38;93637;1198;92819;-70
2021/09/24 05:35:59;;;;;;;13.80;2.80;;;;;;;12.39;80.04;99231.86;93657;1197;78958;-64
2021/09/24 05:38:03;;;;;;;14.70;3.00;;;;;;;12.43;79.90;99232.36;93666;1197;81476;-63
2021/09/24 05:40:11;;;;;;;13.50;2.70;;;;;;;12.54;79.92;99235.09;93648;1196;97982;-74
2021/09/24 05:42:15;;;;;;;9.60;2.30;;;;;;;12.71;79.96;99235.96;93705;1196;87437;-67
2021/09/24 05:44:19;;;;;;;10.90;2.60;;;;;;;12.80;79.66;99235.41;93691;1196;94029;-67
2021/09/24 05:46:23;;;;;;;12.80;2.30;;;;;;;12.83;79.55;99241.83;93609;1196;79710;-63
2021/09/24 05:48:31;;;;;;;11.40;3.10;;;;;;;12.88;79.40;99242.59;93640;1196;81502;-64
2021/09/24 05:50:35;;;;;;;8.60;2.20;;;;;;;12.89;79.33;99238.19;93675;1197;98947;-62
2021/09/24 05:52:43;;;;;;;13.20;3.10;;;;;;;12.89;79.28;99244.41;93651;1196;88303;-64
2021/09/24 05:54:50;;;;;;;13.10;3.00;;;;;;;12.88;79.15;99249.33;93708;1196;93432;-64
2021/09/24 05:56:55;;;;;;;15.90;3.20;;;;;;;12.87;79.12;99250.73;93660;1196;80720;-64
2021/09/24 05:59:02;;;;;;;12.50;2.90;;;;;;;12.89;78.98;99251.69;93691;1196;81893;-63
2021/09/24 06:01:07;;;;;;;7.60;2.00;;;;;;;12.97;79.00;99250.36;93634;1196;98848;-67
2021/09/24 06:03:11;;;;;;;9.10;3.10;;;;;;;12.99;78.85;99256.12;93692;1196;87451;-67
2021/09/24 06:05:22;;;;;;;13.20;2.60;;;;;;;13.09;78.97;99262.63;93646;1196;93893;-68
2021/09/24 06:07:26;;;;;;;10.30;2.30;;;;;;;13.19;78.86;99256.14;93636;1196;79573;-67
2021/09/24 06:09:31;;;;;;;8.20;2.30;;;;;;;13.26;78.69;99257.67;93714;1197;80253;-67
2021/09/24 06:11:35;;;;;;;11.20;2.10;;;;;;;13.25;78.46;99268.22;93615;1196;98688;-64
2021/09/24 06:13:39;;;;;;;8.90;2.40;;;;;;;13.15;78.29;99269.73;93687;1196;86859;-64
2021/09/24 06:15:43;;;;;;;12.60;2.40;;;;;;;13.13;78.25;99274.05;93629;1198;94414;-68
2021/09/24 06:17:48;;;;;;;11.50;2.70;;;;;;;13.16;78.26;99270.40;93624;1199;79749;-67
2021/09/24 06:19:53;;;;;;;10.50;2.20;;;;;;;13.18;78.19;99267.23;93719;1196;81628;-67
2021/09/24 06:21:57;;;;;;;12.00;3.10;;;;;;;13.18;78.26;99265.83;93654;1196;97373;-62
2021/09/24 06:24:01;;;;;;;10.40;2.60;;;;;;;13.31;78.26;99270.66;93668;1196;87868;-63
2021/09/24 06:26:06;;;;;;;9.40;2.60;;;;;;;13.42;78.13;99269.67;93609;1196;95985;-64
2021/09/24 06:28:10;;;;;;;9.40;2.80;;;;;;;13.53;77.99;99271.30;93643;1196;79944;-64
2021/09/24 06:30:21;;;;;;;7.40;2.40;;;;;;;13.62;77.90;99279.92;93669;1196;80476;-64
2021/09/24 06:32:26;;;;;;;13.20;3.40;;;;;;;13.62;77.74;99284.19;93645;1197;100753;-67
2021/09/24 06:34:30;;;;;;;13.50;3.80;;;;;;;13.65;77.74;99289.14;93744;1196;86843;-66
2021/09/24 06:36:34;;;;;;;10.90;2.80;;;;;;;13.68;77.70;99290.41;93608;1197;94632;-68
2021/09/24 06:38:38;;;;;;;8.30;2.40;;;;;;;13.68;77.58;99290.27;93724;1196;80230;-67
2021/09/24 06:40:43;;;;;;;13.20;2.70;;;;;;;13.69;77.50;99282.73;93637;1196;81134;-63
2021/09/24 06:42:47;;;;;;;11.50;2.80;;;;;;;13.77;77.25;99281.40;93662;1197;99073;-63
2021/09/24 06:44:53;;;;;;;14.70;4.10;;;;;;;13.78;77.26;99283.02;93668;1196;86993;-64
2021/09/24 06:46:57;;;;;;;13.50;3.40;;;;;;;13.75;77.23;99292.09;93652;1197;93671;-64
2021/09/24 06:49:01;;;;;;;12.00;3.00;;;;;;;13.67;77.08;99294.70;93598;1196;79766;-64
2021/09/24 06:51:07;;;;;;;10.60;3.30;;;;;;;13.65;77.10;99290.90;93694;1196;80316;-68
2021/09/24 06:53:11;;;;;;;10.10;2.80;;;;;;;13.61;77.03;99287.88;93662;1196;97743;-66
2021/09/24 06:55:21;;;;;;;9.20;2.10;;;;;;;13.56;77.03;99294.02;93659;1196;86490;-66
2021/09/24 06:57:25;;;;;;;9.70;2.60;;;;;;;13.44;76.89;99293.13;93692;1196;91928;-67
2021/09/24 06:59:30;;;;;;;13.90;3.10;;;;;;;13.46;76.89;99294.23;93713;1196;78760;-66
2021/09/24 07:01:34;;;;;;;9.50;2.70;;;;;;;13.53;77.02;99294.80;93563;1197;80784;-66
2021/09/24 07:03:38;;;;;;;11.80;2.90;;;;;;;13.63;77.09;99294.98;93645;1196;98447;-67
2021/09/24 07:05:42;;;;;;;12.70;3.20;;;;;;;13.72;77.02;99303.42;93624;1198;88527;-67
2021/09/24 07:07:50;;;;;;;10.80;2.90;;;;;;;13.79;77.10;99295.30;93656;1196;95324;-66
2021/09/24 07:09:56;;;;;;;11.60;2.80;;;;;;;13.88;76.81;99301.02;93678;1196;80681;-67
2021/09/24 07:12:00;;;;;;;9.70;2.90;;;;;;;13.80;76.53;99312.25;93657;1196;80871;-66
2021/09/24 07:14:08;;;;;;;11.80;2.60;;;;;;;13.78;76.55;99316.34;93705;1196;98043;-66
2021/09/24 07:16:12;;;;;;;15.90;4.30;;;;;;;13.87;76.53;99312.41;93619;1196;86532;-63
2021/09/24 07:18:16;;;;;;;13.10;3.40;;;;;;;14.07;76.54;99314.27;93661;1196;92736;-64
2021/09/24 07:20:22;;;;;;;12.70;3.10;;;;;;;14.21;76.40;99316.48;93663;1196;78338;-66
2021/09/24 07:22:26;;;;;;;12.30;2.90;;;;;;;14.25;76.01;99328.02;93650;1196;80877;-67
2021/09/24 07:24:30;;;;;;;11.60;3.00;;;;;;;14.23;75.82;99329.99;93672;1196;99018;-67
2021/09/24 07:26:35;;;;;;;12.70;2.90;;;;;;;14.25;75.81;99329.02;93632;1196;86623;-64
2021/09/24 07:28:39;;;;;;;12.10;3.30;;;;;;;14.36;75.67;99336.77;93703;1196;93631;-63
2021/09/24 07:30:44;;;;;;;12.90;2.50;;;;;;;14.40;75.61;99342.34;93661;1196;79038;-73
2021/09/24 07:32:48;;;;;;;10.30;3.00;;;;;;;14.40;75.59;99345.13;93636;1196;80870;-63
2021/09/24 07:34:52;;;;;;;13.00;2.60;;;;;;;14.43;75.45;99345.80;93654;1196;98260;-62
2021/09/24 07:36:56;;;;;;;12.80;2.80;;;;;;;14.47;75.55;99344.08;93624;1196;87970;-62
2021/09/24 07:39:03;;;;;;;11.80;2.30;;;;;;;14.54;75.24;99348.91;93664;1196;94580;-64
2021/09/24 07:41:08;;;;;;;11.70;2.60;;;;;;;14.61;75.27;99352.85;93623;1196;78640;-67
2021/09/24 07:43:13;;;;;;;10.40;2.70;;;;;;;14.70;74.99;99357.40;93675;1196;80120;-67
2021/09/24 07:45:20;;;;;;;10.30;2.80;;;;;;;14.70;74.77;99356.84;93693;1196;99553;-66
2021/09/24 07:47:25;;;;;;;11.80;3.00;;;;;;;14.82;74.91;99362.20;93635;1197;88084;-64
2021/09/24 07:49:29;;;;;;;10.50;3.00;;;;;;;14.98;74.73;99363.59;93658;1196;93951;-63
2021/09/24 07:51:34;;;;;;;10.40;2.50;;;;;;;14.99;74.19;99369.20;93701;1196;77988;-67
2021/09/24 07:53:38;;;;;;;9.00;2.80;;;;;;;15.02;73.93;99366.98;93672;1196;80584;-67
2021/09/24 07:55:43;;;;;;;13.10;3.00;;;;;;;15.21;74.23;99375.94;93670;1196;98821;-64
2021/09/24 07:57:51;;;;;;;10.70;2.60;;;;;;;15.37;73.76;99374.98;93705;1196;87254;-63
2021/09/24 07:59:55;;;;;;;8.70;2.30;;;;;;;15.55;73.86;99374.23;93652;1196;94315;-63
2021/09/24 08:01:59;;;;;;;10.50;3.00;;;;;;;15.71;73.80;99370.20;93677;1196;79848;-67
2021/09/24 08:04:05;;;;;;;13.30;3.10;;;;;;;15.97;73.61;99374.30;93693;1196;81288;-67
2021/09/24 08:06:09;;;;;;;11.90;3.10;;;;;;;16.31;73.26;99366.27;93653;1196;98179;-67
2021/09/24 08:08:13;;;;;;;17.60;3.70;;;;;;;16.79;72.50;99371.12;93689;1196;87522;-67
2021/09/24 08:10:20;;;;;;;13.90;3.40;;;;;;;17.59;72.29;99360.66;93678;1196;94182;-63
2021/09/24 08:12:24;;;;;;;10.80;3.10;;;;;;;18.87;70.95;99354.36;93640;1196;78630;-67
2021/09/24 08:14:28;;;;;;;8.80;3.30;;;;;;;20.18;69.27;99361.57;93694;1196;81250;-67
2021/09/24 08:16:33;;;;;;;8.50;2.70;;;;;;;21.12;67.57;99356.67;93670;1198;99449;-66
2021/09/24 08:18:37;;;;;;;8.70;3.10;;;;;;;21.63;65.59;99358.31;93666;1196;87459;-67
2021/09/24 08:20:42;;;;;;;10.50;2.60;;;;;;;21.23;64.50;99359.58;93663;1196;93406;-67
2021/09/24 08:22:47;;;;;;;6.10;2.70;;;;;;;21.34;63.60;99357.16;93686;1196;78518;-67
2021/09/24 08:24:54;;;;;;;9.80;2.70;;;;;;;21.05;62.37;99368.23;93688;1196;82469;-67
2021/09/24 08:26:58;;;;;;;6.90;2.60;;;;;;;20.56;62.53;99369.64;93683;1196;97705;-64
2021/09/24 08:29:06;;;;;;;8.60;2.60;;;;;;;20.53;63.41;99375.03;93695;1196;86042;-64
2021/09/24 08:31:10;;;;;;;6.50;1.90;;;;;;;20.17;61.93;99369.83;93688;1197;92988;-64
2021/09/24 08:33:15;;;;;;;6.10;2.20;;;;;;;19.85;62.49;99376.14;93658;1196;78050;-63
2021/09/24 08:35:21;;;;;;;9.30;2.40;;;;;;;19.73;63.01;99380.20;93712;1196;81820;-64
2021/09/24 08:37:25;;;;;;;10.10;2.90;;;;;;;19.47;62.51;99379.79;93770;1196;99628;-67
2021/09/24 08:39:29;;;;;;;9.70;2.70;;;;;;;19.06;62.09;99374.70;93669;1197;87448;-67
2021/09/24 08:41:35;;;;;;;8.40;2.40;;;;;;;19.36;63.36;99382.55;93620;1199;94420;-68
2021/09/24 08:43:40;;;;;;;6.80;2.10;;;;;;;19.77;62.85;99375.54;93709;1196;79180;-67
2021/09/24 08:45:47;;;;;;;12.50;2.70;;;;;;;20.92;62.77;99375.60;93671;1198;81687;-63
2021/09/24 08:47:52;;;;;;;8.20;2.30;;;;;;;21.30;61.16;99377.73;93670;1198;97495;-64
2021/09/24 08:49:56;;;;;;;9.70;2.80;;;;;;;21.19;61.05;99379.01;93652;1198;87124;-64
2021/09/24 08:52:01;;;;;;;7.90;2.40;;;;;;;21.14;58.99;99382.98;93648;1196;93772;-68
2021/09/24 08:54:08;;;;;;;8.80;2.20;;;;;;;20.56;59.47;99391.59;93633;1197;78571;-68
2021/09/24 08:56:14;;;;;;;8.30;2.20;;;;;;;20.43;58.94;99398.82;93694;1198;81662;-67
2021/09/24 08:58:18;;;;;;;6.20;2.60;;;;;;;20.40;59.57;99401.19;93650;1198;97405;-66
2021/09/24 09:00:24;;;;;;;6.80;2.40;;;;;;;20.21;58.92;99404.00;93656;1198;86724;-68
2021/09/24 09:02:28;;;;;;;8.40;2.70;;;;;;;19.80;59.43;99413.76;93639;1198;94220;-81
2021/09/24 09:04:41;;;;;;;9.80;3.20;;;;;;;19.36;59.48;99412.90;93631;1198;78224;-80
2021/09/24 09:06:46;;;;;;;7.20;2.80;;;;;;;18.91;60.14;99410.50;93710;1196;80583;-71
2021/09/24 09:09:00;;;;;;;11.00;2.70;;;;;;;18.72;60.60;99408.45;93673;1197;98423;-63
2021/09/24 09:11:08;;;;;;;11.10;2.60;;;;;;;18.67;60.81;99408.05;93665;1194;87578;-63
2021/09/24 09:13:16;;;;;;;7.40;2.60;;;;;;;18.75;60.91;99411.48;93687;1198;93700;-64
2021/09/24 09:15:20;;;;;;;7.60;2.60;;;;;;;18.99;61.76;99408.84;93636;1196;79059;-63
2021/09/24 09:17:31;;;;;;;8.30;2.80;;;;;;;19.49;60.94;99414.09;93687;1197;79876;-62
2021/09/24 09:19:39;;;;;;;9.30;2.80;;;;;;;19.68;60.94;99417.64;93686;1197;98280;-62
2021/09/24 09:21:46;;;;;;;8.70;2.40;;;;;;;20.00;60.78;99424.39;93693;1198;86963;-63
2021/09/24 09:23:52;;;;;;;8.00;2.50;;;;;;;20.23;60.12;99431.58;93629;1197;92789;-64
2021/09/24 09:26:03;;;;;;;6.00;2.50;;;;;;;19.86;59.43;99432.77;93629;1199;79584;-65
2021/09/24 09:28:14;;;;;;;5.80;2.20;;;;;;;19.22;58.98;99427.27;93692;1198;80713;-67
2021/09/24 09:30:23;;;;;;;4.70;1.90;;;;;;;18.77;59.53;99440.98;93670;1193;99433;-63
2021/09/24 09:32:28;;;;;;;7.80;2.50;;;;;;;18.51;60.01;99436.16;93645;1198;87968;-67
2021/09/24 09:34:36;;;;;;;5.90;1.90;;;;;;;18.23;60.32;99436.12;93640;1198;94709;-67
2021/09/24 09:36:43;;;;;;;6.20;2.20;;;;;;;18.01;60.67;99430.60;93622;1196;77828;-63
2021/09/24 09:38:47;;;;;;;5.40;2.40;;;;;;;17.99;61.08;99432.16;93681;1197;81161;-64
2021/09/24 09:41:00;;;;;;;6.10;2.50;;;;;;;18.20;61.18;99433.91;93681;1198;99015;-66
2021/09/24 09:43:07;;;;;;;6.40;2.20;;;;;;;18.09;61.12;99437.61;93603;1198;85893;-66
2021/09/24 09:45:16;;;;;;;7.60;2.70;;;;;;;18.10;61.37;99437.29;93686;1197;93834;-68
2021/09/24 09:47:31;;;;;;;7.00;2.20;;;;;;;18.35;61.33;99426.96;93744;1198;78197;-67
2021/09/24 09:49:36;;;;;;;9.40;2.10;;;;;;;18.35;60.72;99427.63;93673;1198;80450;-67
2021/09/24 09:51:46;;;;;;;7.40;2.30;;;;;;;18.32;60.74;99432.31;93691;1198;98886;-64
2021/09/24 09:53:51;;;;;;;7.40;2.40;;;;;;;18.57;60.71;99431.79;93672;1198;88003;-63
2021/09/24 09:56:00;;;;;;;5.90;2.30;;;;;;;18.76;60.92;99430.80;93656;1197;95231;-66